Terminal Aerodrome Forecast
Issued by NWS

Home | Current Version | Previous Version | Text Only | Print | Product List | Glossary On
Versions: 1 2 3 4 5 6 7 8 9 10 11 12 13 14 15
000
FTUS43 KLSX 200507 AAA
TAFSUS
TAF AMD
KSUS 200507Z 2005/2024 16004KT 3SM BR FEW250
      TEMPO 2005/2009 1SM BR
     FM201400 16010KT P6SM FEW250=

USA.gov is the U.S. government's official web portal to all federal, state and local government web resources and services.